sensor_id;sensor_type;location;lat;lon;timestamp;P1;durP1;ratioP1;P2;durP2;ratioP2
61096;SDS011;46977;50.936;6.908;2022-08-04T00:02:39;3.17;;;1.10;;
61096;SDS011;46977;50.936;6.908;2022-08-04T00:05:52;3.85;;;1.27;;
61096;SDS011;46977;50.936;6.908;2022-08-04T00:09:05;6.45;;;1.60;;
61096;SDS011;46977;50.936;6.908;2022-08-04T00:12:12;4.53;;;1.77;;
61096;SDS011;46977;50.936;6.908;2022-08-04T00:15:17;3.00;;;1.90;;
61096;SDS011;46977;50.936;6.908;2022-08-04T00:18:20;4.70;;;1.70;;
61096;SDS011;46977;50.936;6.908;2022-08-04T00:21:26;5.57;;;1.95;;
61096;SDS011;46977;50.936;6.908;2022-08-04T00:24:30;3.28;;;1.30;;
61096;SDS011;46977;50.936;6.908;2022-08-04T00:27:34;1.80;;;1.05;;
61096;SDS011;46977;50.936;6.908;2022-08-04T00:30:37;4.93;;;1.23;;
61096;SDS011;46977;50.936;6.908;2022-08-04T00:33:42;4.35;;;1.40;;
61096;SDS011;46977;50.936;6.908;2022-08-04T00:36:45;3.92;;;1.40;;
61096;SDS011;46977;50.936;6.908;2022-08-04T00:39:48;5.13;;;1.40;;
61096;SDS011;46977;50.936;6.908;2022-08-04T00:42:53;4.05;;;1.20;;
61096;SDS011;46977;50.936;6.908;2022-08-04T00:50:00;3.65;;;1.33;;
61096;SDS011;46977;50.936;6.908;2022-08-04T00:53:06;5.53;;;1.20;;
61096;SDS011;46977;50.936;6.908;2022-08-04T00:56:14;1.10;;;1.00;;
61096;SDS011;46977;50.936;6.908;2022-08-04T00:59:49;2.15;;;1.33;;
61096;SDS011;46977;50.936;6.908;2022-08-04T01:02:59;4.07;;;1.83;;
61096;SDS011;46977;50.936;6.908;2022-08-04T01:06:11;3.50;;;1.23;;
61096;SDS011;46977;50.936;6.908;2022-08-04T01:09:25;7.03;;;1.40;;
61096;SDS011;46977;50.936;6.908;2022-08-04T01:12:39;2.65;;;1.02;;
61096;SDS011;46977;50.936;6.908;2022-08-04T01:15:52;2.45;;;1.00;;
61096;SDS011;46977;50.936;6.908;2022-08-04T01:19:05;4.05;;;1.20;;
61096;SDS011;46977;50.936;6.908;2022-08-04T01:22:16;4.43;;;1.33;;
61096;SDS011;46977;50.936;6.908;2022-08-04T01:25:28;2.38;;;1.02;;
61096;SDS011;46977;50.936;6.908;2022-08-04T01:29:01;2.15;;;0.98;;
61096;SDS011;46977;50.936;6.908;2022-08-04T01:32:09;2.75;;;1.00;;
61096;SDS011;46977;50.936;6.908;2022-08-04T01:35:18;3.10;;;1.15;;
61096;SDS011;46977;50.936;6.908;2022-08-04T01:38:45;3.05;;;1.40;;
61096;SDS011;46977;50.936;6.908;2022-08-04T01:41:47;3.28;;;1.20;;
61096;SDS011;46977;50.936;6.908;2022-08-04T01:45:02;3.53;;;1.20;;
61096;SDS011;46977;50.936;6.908;2022-08-04T01:48:06;3.28;;;1.40;;
61096;SDS011;46977;50.936;6.908;2022-08-04T01:51:08;2.47;;;1.08;;
61096;SDS011;46977;50.936;6.908;2022-08-04T01:54:11;4.53;;;1.45;;
61096;SDS011;46977;50.936;6.908;2022-08-04T01:57:14;3.15;;;1.10;;
61096;SDS011;46977;50.936;6.908;2022-08-04T02:00:40;5.80;;;1.25;;
61096;SDS011;46977;50.936;6.908;2022-08-04T02:04:02;2.90;;;1.00;;
61096;SDS011;46977;50.936;6.908;2022-08-04T02:07:27;2.53;;;1.17;;
61096;SDS011;46977;50.936;6.908;2022-08-04T02:10:46;1.25;;;1.13;;
61096;SDS011;46977;50.936;6.908;2022-08-04T02:13:56;4.93;;;1.10;;
61096;SDS011;46977;50.936;6.908;2022-08-04T02:17:02;3.28;;;1.10;;
61096;SDS011;46977;50.936;6.908;2022-08-04T02:20:11;2.75;;;1.40;;
61096;SDS011;46977;50.936;6.908;2022-08-04T02:23:18;4.05;;;1.20;;
61096;SDS011;46977;50.936;6.908;2022-08-04T02:26:27;4.07;;;1.23;;
61096;SDS011;46977;50.936;6.908;2022-08-04T02:29:31;3.92;;;1.50;;
61096;SDS011;46977;50.936;6.908;2022-08-04T02:32:38;1.88;;;1.20;;
61096;SDS011;46977;50.936;6.908;2022-08-04T02:35:41;3.63;;;1.50;;
61096;SDS011;46977;50.936;6.908;2022-08-04T02:38:55;2.60;;;1.30;;
61096;SDS011;46977;50.936;6.908;2022-08-04T02:42:01;5.07;;;1.50;;
61096;SDS011;46977;50.936;6.908;2022-08-04T02:45:04;2.00;;;1.38;;
61096;SDS011;46977;50.936;6.908;2022-08-04T02:48:09;3.97;;;1.65;;
61096;SDS011;46977;50.936;6.908;2022-08-04T02:51:32;3.17;;;1.33;;
61096;SDS011;46977;50.936;6.908;2022-08-04T02:54:37;4.75;;;1.33;;
61096;SDS011;46977;50.936;6.908;2022-08-04T02:57:41;2.60;;;1.60;;
61096;SDS011;46977;50.936;6.908;2022-08-04T03:00:45;2.65;;;1.20;;
61096;SDS011;46977;50.936;6.908;2022-08-04T03:03:58;4.05;;;1.67;;
61096;SDS011;46977;50.936;6.908;2022-08-04T03:07:19;4.53;;;1.70;;
61096;SDS011;46977;50.936;6.908;2022-08-04T03:14:27;5.43;;;2.13;;
61096;SDS011;46977;50.936;6.908;2022-08-04T03:17:59;4.30;;;2.25;;
61096;SDS011;46977;50.936;6.908;2022-08-04T03:21:25;3.75;;;2.45;;
61096;SDS011;46977;50.936;6.908;2022-08-04T03:25:09;4.47;;;2.35;;
61096;SDS011;46977;50.936;6.908;2022-08-04T03:31:51;5.50;;;2.28;;
61096;SDS011;46977;50.936;6.908;2022-08-04T03:39:02;4.13;;;2.55;;
61096;SDS011;46977;50.936;6.908;2022-08-04T03:42:29;5.45;;;2.60;;
61096;SDS011;46977;50.936;6.908;2022-08-04T03:45:53;10.50;;;2.42;;
61096;SDS011;46977;50.936;6.908;2022-08-04T03:59:41;5.80;;;2.20;;
61096;SDS011;46977;50.936;6.908;2022-08-04T04:03:14;5.03;;;2.50;;
61096;SDS011;46977;50.936;6.908;2022-08-04T04:06:37;4.15;;;2.90;;
61096;SDS011;46977;50.936;6.908;2022-08-04T04:10:02;4.10;;;2.30;;
61096;SDS011;46977;50.936;6.908;2022-08-04T04:13:26;4.50;;;2.67;;
61096;SDS011;46977;50.936;6.908;2022-08-04T04:16:37;4.53;;;2.72;;
61096;SDS011;46977;50.936;6.908;2022-08-04T04:19:59;9.13;;;2.83;;
61096;SDS011;46977;50.936;6.908;2022-08-04T04:26:39;6.10;;;2.42;;
61096;SDS011;46977;50.936;6.908;2022-08-04T04:30:03;4.72;;;2.50;;
61096;SDS011;46977;50.936;6.908;2022-08-04T04:36:34;5.43;;;3.00;;
61096;SDS011;46977;50.936;6.908;2022-08-04T04:39:42;4.75;;;2.40;;
61096;SDS011;46977;50.936;6.908;2022-08-04T04:43:08;4.80;;;2.63;;
61096;SDS011;46977;50.936;6.908;2022-08-04T04:46:20;4.78;;;2.63;;
61096;SDS011;46977;50.936;6.908;2022-08-04T04:49:33;3.22;;;2.70;;
61096;SDS011;46977;50.936;6.908;2022-08-04T04:52:57;3.85;;;2.58;;
61096;SDS011;46977;50.936;6.908;2022-08-04T04:56:07;6.53;;;2.75;;
61096;SDS011;46977;50.936;6.908;2022-08-04T04:59:17;2.72;;;2.50;;
61096;SDS011;46977;50.936;6.908;2022-08-04T05:06:13;4.45;;;2.72;;
61096;SDS011;46977;50.936;6.908;2022-08-04T05:09:29;4.95;;;2.53;;
61096;SDS011;46977;50.936;6.908;2022-08-04T05:12:39;4.25;;;2.80;;
61096;SDS011;46977;50.936;6.908;2022-08-04T05:16:13;4.28;;;3.08;;
61096;SDS011;46977;50.936;6.908;2022-08-04T05:19:21;6.72;;;2.67;;
61096;SDS011;46977;50.936;6.908;2022-08-04T05:22:28;2.95;;;2.28;;
61096;SDS011;46977;50.936;6.908;2022-08-04T05:25:33;4.43;;;2.42;;
61096;SDS011;46977;50.936;6.908;2022-08-04T05:28:37;4.53;;;2.85;;
61096;SDS011;46977;50.936;6.908;2022-08-04T05:31:41;3.58;;;2.47;;
61096;SDS011;46977;50.936;6.908;2022-08-04T05:34:51;3.70;;;2.40;;
61096;SDS011;46977;50.936;6.908;2022-08-04T05:37:59;3.03;;;2.70;;
61096;SDS011;46977;50.936;6.908;2022-08-04T05:41:02;6.38;;;3.13;;
61096;SDS011;46977;50.936;6.908;2022-08-04T05:44:06;4.57;;;2.58;;
61096;SDS011;46977;50.936;6.908;2022-08-04T05:47:09;4.80;;;2.55;;
61096;SDS011;46977;50.936;6.908;2022-08-04T05:50:14;3.85;;;2.80;;
61096;SDS011;46977;50.936;6.908;2022-08-04T05:53:19;2.85;;;2.65;;
61096;SDS011;46977;50.936;6.908;2022-08-04T05:56:22;3.10;;;2.40;;
61096;SDS011;46977;50.936;6.908;2022-08-04T05:59:24;4.25;;;2.60;;
61096;SDS011;46977;50.936;6.908;2022-08-04T06:02:27;3.03;;;2.30;;
61096;SDS011;46977;50.936;6.908;2022-08-04T06:05:32;2.60;;;2.40;;
61096;SDS011;46977;50.936;6.908;2022-08-04T06:08:37;2.58;;;2.15;;
61096;SDS011;46977;50.936;6.908;2022-08-04T06:11:43;4.97;;;2.53;;
61096;SDS011;46977;50.936;6.908;2022-08-04T06:15:10;3.22;;;2.50;;
61096;SDS011;46977;50.936;6.908;2022-08-04T06:18:16;4.43;;;2.60;;
61096;SDS011;46977;50.936;6.908;2022-08-04T06:22:22;4.65;;;2.22;;
61096;SDS011;46977;50.936;6.908;2022-08-04T06:25:27;3.55;;;2.35;;
61096;SDS011;46977;50.936;6.908;2022-08-04T06:28:32;5.93;;;2.33;;
61096;SDS011;46977;50.936;6.908;2022-08-04T06:31:36;5.00;;;2.42;;
61096;SDS011;46977;50.936;6.908;2022-08-04T06:35:07;2.33;;;1.85;;
61096;SDS011;46977;50.936;6.908;2022-08-04T06:38:13;2.60;;;2.00;;
61096;SDS011;46977;50.936;6.908;2022-08-04T06:41:16;3.92;;;2.35;;
61096;SDS011;46977;50.936;6.908;2022-08-04T06:44:18;5.03;;;2.15;;
61096;SDS011;46977;50.936;6.908;2022-08-04T06:47:27;2.70;;;2.30;;
61096;SDS011;46977;50.936;6.908;2022-08-04T06:50:31;9.68;;;2.70;;
61096;SDS011;46977;50.936;6.908;2022-08-04T06:53:57;7.95;;;2.22;;
61096;SDS011;46977;50.936;6.908;2022-08-04T06:56:59;6.35;;;2.13;;
61096;SDS011;46977;50.936;6.908;2022-08-04T07:00:04;5.55;;;2.70;;
61096;SDS011;46977;50.936;6.908;2022-08-04T07:03:10;4.43;;;2.10;;
61096;SDS011;46977;50.936;6.908;2022-08-04T07:06:13;6.82;;;2.30;;
61096;SDS011;46977;50.936;6.908;2022-08-04T07:09:17;3.95;;;2.20;;
61096;SDS011;46977;50.936;6.908;2022-08-04T07:12:19;4.55;;;2.55;;
61096;SDS011;46977;50.936;6.908;2022-08-04T07:15:22;4.30;;;2.25;;
61096;SDS011;46977;50.936;6.908;2022-08-04T07:18:25;3.95;;;2.25;;
61096;SDS011;46977;50.936;6.908;2022-08-04T07:21:28;4.85;;;2.00;;
61096;SDS011;46977;50.936;6.908;2022-08-04T07:24:32;2.97;;;1.85;;
61096;SDS011;46977;50.936;6.908;2022-08-04T07:27:34;5.28;;;2.28;;
61096;SDS011;46977;50.936;6.908;2022-08-04T07:30:50;5.95;;;2.25;;
61096;SDS011;46977;50.936;6.908;2022-08-04T07:33:54;3.60;;;2.10;;
61096;SDS011;46977;50.936;6.908;2022-08-04T07:37:16;3.80;;;2.20;;
61096;SDS011;46977;50.936;6.908;2022-08-04T07:40:20;3.30;;;1.85;;
61096;SDS011;46977;50.936;6.908;2022-08-04T07:43:23;2.30;;;1.83;;
61096;SDS011;46977;50.936;6.908;2022-08-04T07:46:25;3.95;;;2.00;;
61096;SDS011;46977;50.936;6.908;2022-08-04T07:49:33;5.30;;;2.25;;
61096;SDS011;46977;50.936;6.908;2022-08-04T07:52:56;3.42;;;1.65;;
61096;SDS011;46977;50.936;6.908;2022-08-04T07:56:20;3.42;;;2.28;;
61096;SDS011;46977;50.936;6.908;2022-08-04T07:59:23;4.38;;;1.90;;
61096;SDS011;46977;50.936;6.908;2022-08-04T08:02:25;3.45;;;2.10;;
61096;SDS011;46977;50.936;6.908;2022-08-04T08:05:28;4.03;;;1.90;;
61096;SDS011;46977;50.936;6.908;2022-08-04T08:08:31;6.32;;;2.03;;
61096;SDS011;46977;50.936;6.908;2022-08-04T08:11:34;2.83;;;1.90;;
61096;SDS011;46977;50.936;6.908;2022-08-04T08:14:57;5.93;;;2.00;;
61096;SDS011;46977;50.936;6.908;2022-08-04T08:17:59;5.82;;;1.70;;
61096;SDS011;46977;50.936;6.908;2022-08-04T08:21:02;6.28;;;1.65;;
61096;SDS011;46977;50.936;6.908;2022-08-04T08:24:04;3.92;;;2.22;;
61096;SDS011;46977;50.936;6.908;2022-08-04T08:27:15;4.25;;;1.50;;
61096;SDS011;46977;50.936;6.908;2022-08-04T08:30:17;5.25;;;1.70;;
61096;SDS011;46977;50.936;6.908;2022-08-04T08:33:20;4.13;;;1.65;;
61096;SDS011;46977;50.936;6.908;2022-08-04T08:36:25;4.75;;;1.65;;
61096;SDS011;46977;50.936;6.908;2022-08-04T08:39:32;5.95;;;1.63;;
61096;SDS011;46977;50.936;6.908;2022-08-04T08:42:44;3.80;;;1.48;;
61096;SDS011;46977;50.936;6.908;2022-08-04T08:45:58;3.85;;;1.55;;
61096;SDS011;46977;50.936;6.908;2022-08-04T08:49:48;4.30;;;1.52;;
61096;SDS011;46977;50.936;6.908;2022-08-04T08:56:11;4.38;;;1.50;;
61096;SDS011;46977;50.936;6.908;2022-08-04T09:06:40;5.10;;;1.25;;
61096;SDS011;46977;50.936;6.908;2022-08-04T09:09:52;6.38;;;1.67;;
61096;SDS011;46977;50.936;6.908;2022-08-04T09:13:05;5.47;;;1.60;;
61096;SDS011;46977;50.936;6.908;2022-08-04T09:16:15;4.10;;;1.02;;
61096;SDS011;46977;50.936;6.908;2022-08-04T09:19:20;1.85;;;1.30;;
61096;SDS011;46977;50.936;6.908;2022-08-04T09:22:42;1.60;;;1.15;;
61096;SDS011;46977;50.936;6.908;2022-08-04T09:25:47;5.32;;;1.23;;
61096;SDS011;46977;50.936;6.908;2022-08-04T09:28:53;5.60;;;1.35;;
61096;SDS011;46977;50.936;6.908;2022-08-04T09:32:01;3.40;;;1.50;;
61096;SDS011;46977;50.936;6.908;2022-08-04T09:35:12;3.33;;;1.05;;
61096;SDS011;46977;50.936;6.908;2022-08-04T09:38:22;3.50;;;1.15;;
61096;SDS011;46977;50.936;6.908;2022-08-04T09:41:34;2.38;;;1.08;;
61096;SDS011;46977;50.936;6.908;2022-08-04T09:44:56;5.72;;;1.17;;
61096;SDS011;46977;50.936;6.908;2022-08-04T09:48:09;7.63;;;1.30;;
61096;SDS011;46977;50.936;6.908;2022-08-04T09:51:24;3.60;;;1.20;;
61096;SDS011;46977;50.936;6.908;2022-08-04T09:55:01;3.72;;;0.90;;
61096;SDS011;46977;50.936;6.908;2022-08-04T09:58:08;3.70;;;1.33;;
61096;SDS011;46977;50.936;6.908;2022-08-04T10:01:15;3.78;;;1.02;;
61096;SDS011;46977;50.936;6.908;2022-08-04T10:04:26;2.60;;;1.33;;
61096;SDS011;46977;50.936;6.908;2022-08-04T10:07:48;2.47;;;0.90;;
61096;SDS011;46977;50.936;6.908;2022-08-04T10:11:20;4.38;;;0.80;;
61096;SDS011;46977;50.936;6.908;2022-08-04T10:14:31;3.67;;;0.77;;
61096;SDS011;46977;50.936;6.908;2022-08-04T10:17:47;3.55;;;0.90;;
61096;SDS011;46977;50.936;6.908;2022-08-04T10:21:02;3.22;;;0.90;;
61096;SDS011;46977;50.936;6.908;2022-08-04T10:24:21;3.78;;;1.05;;
61096;SDS011;46977;50.936;6.908;2022-08-04T10:27:32;6.18;;;0.95;;
61096;SDS011;46977;50.936;6.908;2022-08-04T10:30:38;5.97;;;0.88;;
61096;SDS011;46977;50.936;6.908;2022-08-04T10:33:43;3.78;;;0.80;;
61096;SDS011;46977;50.936;6.908;2022-08-04T10:36:52;3.80;;;0.67;;
61096;SDS011;46977;50.936;6.908;2022-08-04T10:40:01;3.50;;;0.70;;
61096;SDS011;46977;50.936;6.908;2022-08-04T10:43:24;1.70;;;0.70;;
61096;SDS011;46977;50.936;6.908;2022-08-04T10:46:35;4.00;;;0.70;;
61096;SDS011;46977;50.936;6.908;2022-08-04T10:49:41;0.82;;;0.63;;
61096;SDS011;46977;50.936;6.908;2022-08-04T10:52:50;4.45;;;0.80;;
61096;SDS011;46977;50.936;6.908;2022-08-04T10:55:58;1.60;;;0.73;;
61096;SDS011;46977;50.936;6.908;2022-08-04T10:59:09;2.88;;;0.80;;
61096;SDS011;46977;50.936;6.908;2022-08-04T11:02:19;6.50;;;1.10;;
61096;SDS011;46977;50.936;6.908;2022-08-04T11:05:29;5.38;;;1.08;;
61096;SDS011;46977;50.936;6.908;2022-08-04T11:08:47;8.93;;;3.28;;
61096;SDS011;46977;50.936;6.908;2022-08-04T11:11:55;10.75;;;9.95;;
61096;SDS011;46977;50.936;6.908;2022-08-04T11:15:04;17.00;;;15.70;;
61096;SDS011;46977;50.936;6.908;2022-08-04T11:18:09;21.13;;;19.10;;
61096;SDS011;46977;50.936;6.908;2022-08-04T11:21:19;3.70;;;1.10;;
61096;SDS011;46977;50.936;6.908;2022-08-04T11:24:25;6.32;;;1.10;;
61096;SDS011;46977;50.936;6.908;2022-08-04T11:27:34;4.72;;;1.67;;
61096;SDS011;46977;50.936;6.908;2022-08-04T11:30:43;6.85;;;0.80;;
61096;SDS011;46977;50.936;6.908;2022-08-04T11:33:54;4.63;;;1.00;;
61096;SDS011;46977;50.936;6.908;2022-08-04T11:37:03;5.32;;;1.20;;
61096;SDS011;46977;50.936;6.908;2022-08-04T11:40:19;5.38;;;1.10;;
61096;SDS011;46977;50.936;6.908;2022-08-04T11:43:25;5.60;;;1.10;;
61096;SDS011;46977;50.936;6.908;2022-08-04T11:46:50;3.53;;;1.00;;
61096;SDS011;46977;50.936;6.908;2022-08-04T11:49:55;5.82;;;1.38;;
61096;SDS011;46977;50.936;6.908;2022-08-04T11:53:02;4.60;;;0.90;;
61096;SDS011;46977;50.936;6.908;2022-08-04T11:56:07;4.70;;;1.00;;
61096;SDS011;46977;50.936;6.908;2022-08-04T11:59:32;3.38;;;0.80;;
61096;SDS011;46977;50.936;6.908;2022-08-04T12:02:40;3.63;;;1.02;;
61096;SDS011;46977;50.936;6.908;2022-08-04T12:06:08;1.20;;;0.77;;
61096;SDS011;46977;50.936;6.908;2022-08-04T12:09:17;7.60;;;1.27;;
61096;SDS011;46977;50.936;6.908;2022-08-04T12:12:33;4.18;;;1.10;;
61096;SDS011;46977;50.936;6.908;2022-08-04T12:15:43;4.57;;;1.03;;
61096;SDS011;46977;50.936;6.908;2022-08-04T12:18:49;4.32;;;1.02;;
61096;SDS011;46977;50.936;6.908;2022-08-04T12:21:55;2.17;;;0.90;;
61096;SDS011;46977;50.936;6.908;2022-08-04T12:25:02;2.97;;;0.85;;
61096;SDS011;46977;50.936;6.908;2022-08-04T12:28:12;6.10;;;1.30;;
61096;SDS011;46977;50.936;6.908;2022-08-04T12:31:18;4.57;;;1.10;;
61096;SDS011;46977;50.936;6.908;2022-08-04T12:34:26;5.60;;;1.20;;
61096;SDS011;46977;50.936;6.908;2022-08-04T12:37:33;6.25;;;1.35;;
61096;SDS011;46977;50.936;6.908;2022-08-04T12:40:43;7.97;;;1.35;;
61096;SDS011;46977;50.936;6.908;2022-08-04T12:43:49;8.20;;;1.27;;
61096;SDS011;46977;50.936;6.908;2022-08-04T12:46:52;4.30;;;0.90;;
61096;SDS011;46977;50.936;6.908;2022-08-04T12:49:55;10.20;;;1.50;;
61096;SDS011;46977;50.936;6.908;2022-08-04T12:53:02;6.93;;;1.50;;
61096;SDS011;46977;50.936;6.908;2022-08-04T12:56:22;6.53;;;1.23;;
61096;SDS011;46977;50.936;6.908;2022-08-04T12:59:27;10.68;;;1.75;;
61096;SDS011;46977;50.936;6.908;2022-08-04T13:02:30;2.63;;;1.30;;
61096;SDS011;46977;50.936;6.908;2022-08-04T13:05:35;6.45;;;1.42;;
61096;SDS011;46977;50.936;6.908;2022-08-04T13:08:40;5.70;;;1.20;;
61096;SDS011;46977;50.936;6.908;2022-08-04T13:11:46;8.77;;;1.10;;
61096;SDS011;46977;50.936;6.908;2022-08-04T13:14:56;7.18;;;0.95;;
61096;SDS011;46977;50.936;6.908;2022-08-04T13:18:10;4.00;;;1.10;;
61096;SDS011;46977;50.936;6.908;2022-08-04T13:21:17;4.18;;;1.05;;
61096;SDS011;46977;50.936;6.908;2022-08-04T13:24:24;4.97;;;1.15;;
61096;SDS011;46977;50.936;6.908;2022-08-04T13:27:47;2.65;;;1.17;;
61096;SDS011;46977;50.936;6.908;2022-08-04T13:31:01;6.38;;;0.93;;
61096;SDS011;46977;50.936;6.908;2022-08-04T13:34:06;5.72;;;1.10;;
61096;SDS011;46977;50.936;6.908;2022-08-04T13:37:21;2.25;;;1.15;;
61096;SDS011;46977;50.936;6.908;2022-08-04T13:40:28;4.43;;;1.30;;
61096;SDS011;46977;50.936;6.908;2022-08-04T13:43:32;5.40;;;1.33;;
61096;SDS011;46977;50.936;6.908;2022-08-04T13:47:02;2.33;;;0.90;;
61096;SDS011;46977;50.936;6.908;2022-08-04T13:50:11;5.20;;;1.30;;
61096;SDS011;46977;50.936;6.908;2022-08-04T13:53:16;4.82;;;1.15;;
61096;SDS011;46977;50.936;6.908;2022-08-04T13:56:23;5.03;;;1.50;;
61096;SDS011;46977;50.936;6.908;2022-08-04T13:59:26;8.43;;;1.70;;
61096;SDS011;46977;50.936;6.908;2022-08-04T14:02:38;4.95;;;1.40;;
61096;SDS011;46977;50.936;6.908;2022-08-04T14:05:45;5.13;;;1.30;;
61096;SDS011;46977;50.936;6.908;2022-08-04T14:09:09;6.07;;;1.50;;
61096;SDS011;46977;50.936;6.908;2022-08-04T14:12:15;6.53;;;1.30;;
61096;SDS011;46977;50.936;6.908;2022-08-04T14:15:39;3.88;;;1.40;;
61096;SDS011;46977;50.936;6.908;2022-08-04T14:19:04;3.88;;;1.23;;
61096;SDS011;46977;50.936;6.908;2022-08-04T14:22:09;2.47;;;1.50;;
61096;SDS011;46977;50.936;6.908;2022-08-04T14:25:16;2.38;;;1.60;;
61096;SDS011;46977;50.936;6.908;2022-08-04T14:28:25;5.28;;;1.38;;
61096;SDS011;46977;50.936;6.908;2022-08-04T14:31:48;5.47;;;1.30;;
61096;SDS011;46977;50.936;6.908;2022-08-04T14:35:10;5.78;;;1.23;;
61096;SDS011;46977;50.936;6.908;2022-08-04T14:38:13;8.05;;;1.58;;
61096;SDS011;46977;50.936;6.908;2022-08-04T14:41:16;7.10;;;1.90;;
61096;SDS011;46977;50.936;6.908;2022-08-04T14:44:20;4.88;;;1.45;;
61096;SDS011;46977;50.936;6.908;2022-08-04T14:47:39;6.50;;;1.63;;
61096;SDS011;46977;50.936;6.908;2022-08-04T14:50:55;8.13;;;1.80;;
61096;SDS011;46977;50.936;6.908;2022-08-04T14:53:57;4.55;;;1.40;;
61096;SDS011;46977;50.936;6.908;2022-08-04T14:57:05;4.30;;;1.25;;
61096;SDS011;46977;50.936;6.908;2022-08-04T15:00:09;5.82;;;1.38;;
61096;SDS011;46977;50.936;6.908;2022-08-04T15:03:18;7.55;;;1.40;;
61096;SDS011;46977;50.936;6.908;2022-08-04T15:06:24;5.28;;;1.33;;
61096;SDS011;46977;50.936;6.908;2022-08-04T15:09:28;2.47;;;1.10;;
61096;SDS011;46977;50.936;6.908;2022-08-04T15:12:31;6.05;;;1.40;;
61096;SDS011;46977;50.936;6.908;2022-08-04T15:15:33;2.33;;;1.40;;
61096;SDS011;46977;50.936;6.908;2022-08-04T15:18:38;5.30;;;1.73;;
61096;SDS011;46977;50.936;6.908;2022-08-04T15:21:43;7.63;;;1.58;;
61096;SDS011;46977;50.936;6.908;2022-08-04T15:24:45;5.90;;;1.58;;
61096;SDS011;46977;50.936;6.908;2022-08-04T15:27:56;5.32;;;1.35;;
61096;SDS011;46977;50.936;6.908;2022-08-04T15:30:59;6.15;;;1.27;;
61096;SDS011;46977;50.936;6.908;2022-08-04T15:34:03;2.28;;;1.30;;
61096;SDS011;46977;50.936;6.908;2022-08-04T15:37:07;3.22;;;1.20;;
61096;SDS011;46977;50.936;6.908;2022-08-04T15:40:11;4.53;;;1.42;;
61096;SDS011;46977;50.936;6.908;2022-08-04T15:43:20;6.63;;;1.30;;
61096;SDS011;46977;50.936;6.908;2022-08-04T15:50:16;4.65;;;1.42;;
61096;SDS011;46977;50.936;6.908;2022-08-04T15:53:31;5.70;;;2.00;;
61096;SDS011;46977;50.936;6.908;2022-08-04T15:56:55;5.70;;;1.63;;
61096;SDS011;46977;50.936;6.908;2022-08-04T16:00:04;5.20;;;1.58;;
61096;SDS011;46977;50.936;6.908;2022-08-04T16:07:03;7.13;;;1.50;;
61096;SDS011;46977;50.936;6.908;2022-08-04T16:13:40;4.93;;;1.80;;
61096;SDS011;46977;50.936;6.908;2022-08-04T16:17:17;7.10;;;2.08;;
61096;SDS011;46977;50.936;6.908;2022-08-04T16:20:20;5.00;;;1.50;;
61096;SDS011;46977;50.936;6.908;2022-08-04T16:23:33;4.45;;;1.92;;
61096;SDS011;46977;50.936;6.908;2022-08-04T16:27:09;2.28;;;1.40;;
61096;SDS011;46977;50.936;6.908;2022-08-04T16:30:13;3.58;;;2.10;;
61096;SDS011;46977;50.936;6.908;2022-08-04T16:33:16;3.45;;;2.00;;
61096;SDS011;46977;50.936;6.908;2022-08-04T16:36:53;6.88;;;2.30;;
61096;SDS011;46977;50.936;6.908;2022-08-04T16:43:37;4.85;;;1.80;;
61096;SDS011;46977;50.936;6.908;2022-08-04T16:46:40;9.05;;;2.13;;
61096;SDS011;46977;50.936;6.908;2022-08-04T16:50:03;4.00;;;1.63;;
61096;SDS011;46977;50.936;6.908;2022-08-04T16:53:08;3.80;;;1.67;;
61096;SDS011;46977;50.936;6.908;2022-08-04T16:56:32;5.05;;;1.40;;
61096;SDS011;46977;50.936;6.908;2022-08-04T16:59:38;6.05;;;2.00;;
61096;SDS011;46977;50.936;6.908;2022-08-04T17:02:53;5.78;;;1.85;;
61096;SDS011;46977;50.936;6.908;2022-08-04T17:06:05;5.75;;;1.70;;
61096;SDS011;46977;50.936;6.908;2022-08-04T17:09:10;6.50;;;1.75;;
61096;SDS011;46977;50.936;6.908;2022-08-04T17:12:14;4.22;;;1.63;;
61096;SDS011;46977;50.936;6.908;2022-08-04T17:15:22;7.45;;;2.33;;
61096;SDS011;46977;50.936;6.908;2022-08-04T17:18:26;6.00;;;1.60;;
61096;SDS011;46977;50.936;6.908;2022-08-04T17:21:31;5.00;;;1.77;;
61096;SDS011;46977;50.936;6.908;2022-08-04T17:24:36;5.35;;;1.50;;
61096;SDS011;46977;50.936;6.908;2022-08-04T17:27:39;5.35;;;2.15;;
61096;SDS011;46977;50.936;6.908;2022-08-04T17:31:05;5.15;;;2.03;;
61096;SDS011;46977;50.936;6.908;2022-08-04T17:34:11;3.90;;;1.80;;
61096;SDS011;46977;50.936;6.908;2022-08-04T17:37:17;6.50;;;2.08;;
61096;SDS011;46977;50.936;6.908;2022-08-04T17:40:50;3.05;;;1.48;;
61096;SDS011;46977;50.936;6.908;2022-08-04T17:43:58;2.45;;;1.88;;
61096;SDS011;46977;50.936;6.908;2022-08-04T17:47:14;5.45;;;1.85;;
61096;SDS011;46977;50.936;6.908;2022-08-04T17:50:24;4.13;;;1.83;;
61096;SDS011;46977;50.936;6.908;2022-08-04T17:53:30;5.72;;;1.50;;
61096;SDS011;46977;50.936;6.908;2022-08-04T17:56:55;5.85;;;1.65;;
61096;SDS011;46977;50.936;6.908;2022-08-04T18:00:00;6.47;;;1.90;;
61096;SDS011;46977;50.936;6.908;2022-08-04T18:03:03;6.60;;;1.90;;
61096;SDS011;46977;50.936;6.908;2022-08-04T18:06:10;2.80;;;1.58;;
61096;SDS011;46977;50.936;6.908;2022-08-04T18:09:13;5.72;;;2.60;;
61096;SDS011;46977;50.936;6.908;2022-08-04T18:12:36;5.22;;;2.55;;
61096;SDS011;46977;50.936;6.908;2022-08-04T18:15:46;6.53;;;1.80;;
61096;SDS011;46977;50.936;6.908;2022-08-04T18:19:09;8.02;;;1.92;;
61096;SDS011;46977;50.936;6.908;2022-08-04T18:22:12;5.05;;;2.25;;
61096;SDS011;46977;50.936;6.908;2022-08-04T18:25:29;4.65;;;1.65;;
61096;SDS011;46977;50.936;6.908;2022-08-04T18:28:51;4.00;;;2.00;;
61096;SDS011;46977;50.936;6.908;2022-08-04T18:31:54;7.40;;;2.38;;
61096;SDS011;46977;50.936;6.908;2022-08-04T18:35:00;7.85;;;2.28;;
61096;SDS011;46977;50.936;6.908;2022-08-04T18:38:08;4.13;;;1.90;;
61096;SDS011;46977;50.936;6.908;2022-08-04T18:41:25;5.60;;;2.50;;
61096;SDS011;46977;50.936;6.908;2022-08-04T18:44:28;6.13;;;2.35;;
61096;SDS011;46977;50.936;6.908;2022-08-04T18:47:32;9.65;;;2.50;;
61096;SDS011;46977;50.936;6.908;2022-08-04T18:50:56;5.82;;;1.77;;
61096;SDS011;46977;50.936;6.908;2022-08-04T18:54:12;4.40;;;2.03;;
61096;SDS011;46977;50.936;6.908;2022-08-04T18:57:17;6.40;;;2.53;;
61096;SDS011;46977;50.936;6.908;2022-08-04T19:00:39;5.53;;;2.38;;
61096;SDS011;46977;50.936;6.908;2022-08-04T19:03:46;7.38;;;2.75;;
61096;SDS011;46977;50.936;6.908;2022-08-04T19:07:01;9.00;;;2.08;;
61096;SDS011;46977;50.936;6.908;2022-08-04T19:10:24;3.58;;;1.70;;
61096;SDS011;46977;50.936;6.908;2022-08-04T19:13:28;8.13;;;1.75;;
61096;SDS011;46977;50.936;6.908;2022-08-04T19:16:35;5.07;;;2.00;;
61096;SDS011;46977;50.936;6.908;2022-08-04T19:19:41;3.80;;;1.85;;
61096;SDS011;46977;50.936;6.908;2022-08-04T19:22:51;11.43;;;2.20;;
61096;SDS011;46977;50.936;6.908;2022-08-04T19:26:14;5.15;;;1.85;;
61096;SDS011;46977;50.936;6.908;2022-08-04T19:29:28;5.18;;;1.80;;
61096;SDS011;46977;50.936;6.908;2022-08-04T19:32:41;5.15;;;1.70;;
61096;SDS011;46977;50.936;6.908;2022-08-04T19:35:49;6.18;;;2.83;;
61096;SDS011;46977;50.936;6.908;2022-08-04T19:38:53;6.18;;;1.85;;
61096;SDS011;46977;50.936;6.908;2022-08-04T19:41:56;4.88;;;1.95;;
61096;SDS011;46977;50.936;6.908;2022-08-04T19:45:08;4.60;;;1.75;;
61096;SDS011;46977;50.936;6.908;2022-08-04T19:48:17;5.90;;;2.03;;
61096;SDS011;46977;50.936;6.908;2022-08-04T19:51:21;5.15;;;1.48;;
61096;SDS011;46977;50.936;6.908;2022-08-04T19:54:30;6.38;;;1.60;;
61096;SDS011;46977;50.936;6.908;2022-08-04T19:57:33;3.38;;;1.85;;
61096;SDS011;46977;50.936;6.908;2022-08-04T20:00:37;4.45;;;2.10;;
61096;SDS011;46977;50.936;6.908;2022-08-04T20:03:45;3.55;;;1.67;;
61096;SDS011;46977;50.936;6.908;2022-08-04T20:07:08;5.20;;;1.80;;
61096;SDS011;46977;50.936;6.908;2022-08-04T20:10:17;6.50;;;1.90;;
61096;SDS011;46977;50.936;6.908;2022-08-04T20:13:24;5.30;;;1.98;;